This is the latest recevied weather packets stored in our database for station/object W9WRP. If no packets are shown the sender has not sent any weather packets the latest 1 day(s).
| Time | Temp. | Humidity | Pressure | Rain* | Wind** | Luminosity | Snow |
|---|---|---|---|---|---|---|---|
| 1778010456 | 23.33° C | 26% | 1013.4 hPa | 0 mm | 0.89 m/s, 259° | 147 W/m² | - |
| 1778010153 | 25° C | 25% | 1013.6 hPa | 0 mm | 0.89 m/s, 229° | 804 W/m² | - |
| 1778009848 | 24.44° C | 24% | 1013.7 hPa | 0 mm | 0.45 m/s, 244° | 788 W/m² | - |
| 1778009546 | 25° C | 24% | 1013.7 hPa | 0 mm | 1.34 m/s, 241° | 811 W/m² | - |
| 1778009245 | 24.44° C | 26% | 1013.6 hPa | 0 mm | 0 m/s | 862 W/m² | - |
| 1778008942 | 25° C | 25% | 1013.7 hPa | 0 mm | 0.89 m/s, 237° | 849 W/m² | - |
| 1778008640 | 23.89° C | 25% | 1013.7 hPa | 0 mm | 1.34 m/s, 259° | 837 W/m² | - |
| 1778008338 | 24.44° C | 25% | 1013.8 hPa | 0 mm | 0.89 m/s, 258° | 819 W/m² | - |
| 1778008034 | 23.89° C | 26% | 1013.9 hPa | 0 mm | 1.34 m/s, 223° | 835 W/m² | - |
| 1778007734 | 24.44° C | 26% | 1013.9 hPa | 0 mm | 0.45 m/s, 233° | 816 W/m² | - |
| 1778007431 | 23.89° C | 27% | 1013.9 hPa | 0 mm | 0.89 m/s, 254° | 805 W/m² | - |
| 1778007127 | 23.89° C | 27% | 1014 hPa | 0 mm | 0.89 m/s, 209° | 809 W/m² | - |
| 1778006823 | 23.89° C | 27% | 1013.8 hPa | 0 mm | 1.34 m/s, 299° | 810 W/m² | - |
| 1778006521 | 23.89° C | 28% | 1014 hPa | 0 mm | 1.34 m/s, 231° | 828 W/m² | - |
| 1778006217 | 23.89° C | 28% | 1013.9 hPa | 0 mm | 1.34 m/s, 222° | 819 W/m² | - |
| 1778005915 | 23.33° C | 28% | 1014.2 hPa | 0 mm | 1.34 m/s, 228° | 821 W/m² | - |
| 1778005610 | 22.22° C | 32% | 1014.1 hPa | 0 mm | 0 m/s | 854 W/m² | - |
| 1778005308 | 22.78° C | 32% | 1014.1 hPa | 0 mm | 0.45 m/s, 226° | 259 W/m² | - |
| 1778005004 | 23.33° C | 31% | 1014.1 hPa | 0 mm | 0.45 m/s, 244° | 180 W/m² | - |
| 1778004701 | 21.67° C | 34% | 1014.2 hPa | 0 mm | 0.89 m/s, 185° | 835 W/m² | - |
| 1778004392 | 22.22° C | 34% | 1014 hPa | 0 mm | 1.34 m/s, 203° | 248 W/m² | - |
| 1778004090 | 22.78° C | 33% | 1014.1 hPa | 0 mm | 0.45 m/s, 264° | 338 W/m² | - |
| 1778003785 | 22.22° C | 35% | 1014.3 hPa | 0 mm | 0.45 m/s, 226° | 230 W/m² | - |
| 1778003481 | 22.78° C | 34% | 1014.1 hPa | 0 mm | 0 m/s | 207 W/m² | - |
| 1778003173 | 22.22° C | 34% | 1014.2 hPa | 0 mm | 0.45 m/s, 257° | 838 W/m² | - |
* Rain latest hour (hover to see other rain measurements)
** Current wind speed in m/s (hover to see current wind gust speed)